sensor_id;sensor_type;location;lat;lon;timestamp;temperature;humidity
3566;DHT22;1797;51.844;7.684;2022-07-21T00:01:29;20.80;99.90
3566;DHT22;1797;51.844;7.684;2022-07-21T00:03:55;20.80;99.90
3566;DHT22;1797;51.844;7.684;2022-07-21T00:06:21;20.70;99.90
3566;DHT22;1797;51.844;7.684;2022-07-21T00:08:46;20.70;99.90
3566;DHT22;1797;51.844;7.684;2022-07-21T00:11:12;20.70;99.90
3566;DHT22;1797;51.844;7.684;2022-07-21T00:13:38;20.60;99.90
3566;DHT22;1797;51.844;7.684;2022-07-21T00:16:04;20.50;99.90
3566;DHT22;1797;51.844;7.684;2022-07-21T00:18:29;20.30;99.90
3566;DHT22;1797;51.844;7.684;2022-07-21T00:20:56;20.30;99.90
3566;DHT22;1797;51.844;7.684;2022-07-21T00:23:23;20.20;99.90
3566;DHT22;1797;51.844;7.684;2022-07-21T00:28:15;20.10;99.90
3566;DHT22;1797;51.844;7.684;2022-07-21T00:30:41;20.10;99.90
3566;DHT22;1797;51.844;7.684;2022-07-21T00:33:06;20.00;99.90
3566;DHT22;1797;51.844;7.684;2022-07-21T00:35:32;20.00;99.90
3566;DHT22;1797;51.844;7.684;2022-07-21T00:37:58;20.00;99.90
3566;DHT22;1797;51.844;7.684;2022-07-21T00:40:24;19.90;99.90
3566;DHT22;1797;51.844;7.684;2022-07-21T00:42:50;19.90;99.90
3566;DHT22;1797;51.844;7.684;2022-07-21T00:45:15;19.90;99.90
3566;DHT22;1797;51.844;7.684;2022-07-21T00:47:42;19.90;99.90
3566;DHT22;1797;51.844;7.684;2022-07-21T00:50:14;19.80;99.90
3566;DHT22;1797;51.844;7.684;2022-07-21T00:52:40;19.80;99.90
3566;DHT22;1797;51.844;7.684;2022-07-21T00:55:07;19.90;99.90
3566;DHT22;1797;51.844;7.684;2022-07-21T00:57:35;19.90;99.90
3566;DHT22;1797;51.844;7.684;2022-07-21T01:00:03;19.90;99.90
3566;DHT22;1797;51.844;7.684;2022-07-21T01:02:29;19.90;99.90
3566;DHT22;1797;51.844;7.684;2022-07-21T01:04:57;19.80;99.90
3566;DHT22;1797;51.844;7.684;2022-07-21T01:07:23;19.90;99.90
3566;DHT22;1797;51.844;7.684;2022-07-21T01:09:49;19.90;99.90
3566;DHT22;1797;51.844;7.684;2022-07-21T01:12:15;20.00;99.90
3566;DHT22;1797;51.844;7.684;2022-07-21T01:17:07;20.10;99.90
3566;DHT22;1797;51.844;7.684;2022-07-21T01:19:33;20.10;99.90
3566;DHT22;1797;51.844;7.684;2022-07-21T01:21:58;20.10;99.90
3566;DHT22;1797;51.844;7.684;2022-07-21T01:24:24;20.10;99.90
3566;DHT22;1797;51.844;7.684;2022-07-21T01:26:52;20.10;99.90
3566;DHT22;1797;51.844;7.684;2022-07-21T01:29:19;20.00;99.90
3566;DHT22;1797;51.844;7.684;2022-07-21T01:31:46;20.00;99.90
3566;DHT22;1797;51.844;7.684;2022-07-21T01:34:12;20.00;99.90
3566;DHT22;1797;51.844;7.684;2022-07-21T01:36:38;20.00;99.90
3566;DHT22;1797;51.844;7.684;2022-07-21T01:39:05;20.00;99.90
3566;DHT22;1797;51.844;7.684;2022-07-21T01:41:50;20.00;99.90
3566;DHT22;1797;51.844;7.684;2022-07-21T01:44:15;20.00;99.90
3566;DHT22;1797;51.844;7.684;2022-07-21T01:46:45;19.90;99.90
3566;DHT22;1797;51.844;7.684;2022-07-21T01:49:12;20.00;99.90
3566;DHT22;1797;51.844;7.684;2022-07-21T01:51:39;19.90;99.90
3566;DHT22;1797;51.844;7.684;2022-07-21T01:54:05;19.90;99.90
3566;DHT22;1797;51.844;7.684;2022-07-21T01:58:58;19.60;99.90
3566;DHT22;1797;51.844;7.684;2022-07-21T02:01:25;19.60;99.90
3566;DHT22;1797;51.844;7.684;2022-07-21T02:03:53;19.60;99.90
3566;DHT22;1797;51.844;7.684;2022-07-21T02:08:45;19.50;99.90
3566;DHT22;1797;51.844;7.684;2022-07-21T02:23:29;19.40;99.90
3566;DHT22;1797;51.844;7.684;2022-07-21T02:25:56;19.20;99.90
3566;DHT22;1797;51.844;7.684;2022-07-21T02:28:24;19.60;99.90
3566;DHT22;1797;51.844;7.684;2022-07-21T02:30:54;19.20;99.90
3566;DHT22;1797;51.844;7.684;2022-07-21T02:33:20;19.10;99.90
3566;DHT22;1797;51.844;7.684;2022-07-21T02:35:46;19.20;99.90
3566;DHT22;1797;51.844;7.684;2022-07-21T02:38:12;19.70;99.90
3566;DHT22;1797;51.844;7.684;2022-07-21T02:40:39;19.20;99.90
3566;DHT22;1797;51.844;7.684;2022-07-21T02:43:05;19.20;99.90
3566;DHT22;1797;51.844;7.684;2022-07-21T02:48:06;18.80;99.90
3566;DHT22;1797;51.844;7.684;2022-07-21T02:50:34;19.10;99.90
3566;DHT22;1797;51.844;7.684;2022-07-21T02:53:02;18.40;99.90
3566;DHT22;1797;51.844;7.684;2022-07-21T02:58:07;19.20;99.90
3566;DHT22;1797;51.844;7.684;2022-07-21T03:00:34;18.90;99.90
3566;DHT22;1797;51.844;7.684;2022-07-21T03:03:00;18.80;99.90
3566;DHT22;1797;51.844;7.684;2022-07-21T03:05:26;19.40;99.90
3566;DHT22;1797;51.844;7.684;2022-07-21T03:07:52;18.90;99.90
3566;DHT22;1797;51.844;7.684;2022-07-21T03:10:17;18.90;99.90
3566;DHT22;1797;51.844;7.684;2022-07-21T03:12:43;18.70;99.90
3566;DHT22;1797;51.844;7.684;2022-07-21T03:15:09;18.80;99.90
3566;DHT22;1797;51.844;7.684;2022-07-21T03:17:34;18.80;99.90
3566;DHT22;1797;51.844;7.684;2022-07-21T03:20:00;18.80;99.90
3566;DHT22;1797;51.844;7.684;2022-07-21T03:22:26;18.90;99.90
3566;DHT22;1797;51.844;7.684;2022-07-21T03:24:51;18.90;99.90
3566;DHT22;1797;51.844;7.684;2022-07-21T03:27:17;18.80;99.90
3566;DHT22;1797;51.844;7.684;2022-07-21T03:29:43;18.80;99.90
3566;DHT22;1797;51.844;7.684;2022-07-21T03:32:09;18.90;99.90
3566;DHT22;1797;51.844;7.684;2022-07-21T03:34:34;18.70;99.90
3566;DHT22;1797;51.844;7.684;2022-07-21T03:37:00;18.80;99.90
3566;DHT22;1797;51.844;7.684;2022-07-21T03:39:25;18.70;99.90
3566;DHT22;1797;51.844;7.684;2022-07-21T03:41:51;18.70;99.90
3566;DHT22;1797;51.844;7.684;2022-07-21T03:44:16;18.70;99.90
3566;DHT22;1797;51.844;7.684;2022-07-21T03:46:42;18.70;99.90
3566;DHT22;1797;51.844;7.684;2022-07-21T03:49:08;18.70;99.90
3566;DHT22;1797;51.844;7.684;2022-07-21T03:51:33;18.70;99.90
3566;DHT22;1797;51.844;7.684;2022-07-21T03:53:59;18.70;99.90
3566;DHT22;1797;51.844;7.684;2022-07-21T03:56:27;18.70;99.90
3566;DHT22;1797;51.844;7.684;2022-07-21T03:58:53;18.20;99.90
3566;DHT22;1797;51.844;7.684;2022-07-21T04:01:18;18.80;99.90
3566;DHT22;1797;51.844;7.684;2022-07-21T04:03:44;18.70;99.90
3566;DHT22;1797;51.844;7.684;2022-07-21T04:06:09;18.60;99.90
3566;DHT22;1797;51.844;7.684;2022-07-21T04:08:37;18.70;99.90
3566;DHT22;1797;51.844;7.684;2022-07-21T04:11:03;18.60;99.90
3566;DHT22;1797;51.844;7.684;2022-07-21T04:13:29;18.60;99.90
3566;DHT22;1797;51.844;7.684;2022-07-21T04:15:54;18.70;99.90
3566;DHT22;1797;51.844;7.684;2022-07-21T04:18:20;18.80;99.90
3566;DHT22;1797;51.844;7.684;2022-07-21T04:20:46;18.80;99.90
3566;DHT22;1797;51.844;7.684;2022-07-21T04:23:11;18.70;99.90
3566;DHT22;1797;51.844;7.684;2022-07-21T04:25:37;18.80;99.90
3566;DHT22;1797;51.844;7.684;2022-07-21T04:28:05;18.80;99.90
3566;DHT22;1797;51.844;7.684;2022-07-21T04:37:50;18.70;99.90
3566;DHT22;1797;51.844;7.684;2022-07-21T04:40:16;18.90;99.90
3566;DHT22;1797;51.844;7.684;2022-07-21T04:42:43;18.80;99.90
3566;DHT22;1797;51.844;7.684;2022-07-21T04:45:11;18.90;99.90
3566;DHT22;1797;51.844;7.684;2022-07-21T04:50:14;19.00;99.90
3566;DHT22;1797;51.844;7.684;2022-07-21T04:52:40;19.00;99.90
3566;DHT22;1797;51.844;7.684;2022-07-21T04:55:06;19.40;99.90
3566;DHT22;1797;51.844;7.684;2022-07-21T04:57:39;19.10;99.90
3566;DHT22;1797;51.844;7.684;2022-07-21T05:00:06;18.60;99.90
3566;DHT22;1797;51.844;7.684;2022-07-21T05:02:32;18.90;99.90
3566;DHT22;1797;51.844;7.684;2022-07-21T05:04:57;19.90;99.90
3566;DHT22;1797;51.844;7.684;2022-07-21T05:07:23;19.20;99.90
3566;DHT22;1797;51.844;7.684;2022-07-21T05:09:49;18.90;99.90
3566;DHT22;1797;51.844;7.684;2022-07-21T05:12:14;18.90;99.90
3566;DHT22;1797;51.844;7.684;2022-07-21T05:14:40;18.90;99.90
3566;DHT22;1797;51.844;7.684;2022-07-21T05:17:05;19.00;99.90
3566;DHT22;1797;51.844;7.684;2022-07-21T05:19:31;19.10;99.90
3566;DHT22;1797;51.844;7.684;2022-07-21T05:21:56;18.90;99.90
3566;DHT22;1797;51.844;7.684;2022-07-21T05:24:22;19.00;99.90
3566;DHT22;1797;51.844;7.684;2022-07-21T05:26:48;18.90;99.90
3566;DHT22;1797;51.844;7.684;2022-07-21T05:29:13;18.60;99.90
3566;DHT22;1797;51.844;7.684;2022-07-21T05:31:39;18.70;99.90
3566;DHT22;1797;51.844;7.684;2022-07-21T05:34:04;18.90;99.90
3566;DHT22;1797;51.844;7.684;2022-07-21T05:36:30;18.90;99.90
3566;DHT22;1797;51.844;7.684;2022-07-21T05:38:56;18.80;99.90
3566;DHT22;1797;51.844;7.684;2022-07-21T05:41:21;18.80;99.90
3566;DHT22;1797;51.844;7.684;2022-07-21T05:43:47;18.90;99.90
3566;DHT22;1797;51.844;7.684;2022-07-21T05:46:13;18.40;99.90
3566;DHT22;1797;51.844;7.684;2022-07-21T05:48:39;18.70;99.90
3566;DHT22;1797;51.844;7.684;2022-07-21T05:51:05;19.10;99.90
3566;DHT22;1797;51.844;7.684;2022-07-21T05:53:31;19.20;99.90
3566;DHT22;1797;51.844;7.684;2022-07-21T05:55:56;19.20;99.90
3566;DHT22;1797;51.844;7.684;2022-07-21T05:58:22;19.10;99.90
3566;DHT22;1797;51.844;7.684;2022-07-21T06:00:51;19.20;99.90
3566;DHT22;1797;51.844;7.684;2022-07-21T06:03:37;19.30;99.90
3566;DHT22;1797;51.844;7.684;2022-07-21T06:06:03;19.30;99.90
3566;DHT22;1797;51.844;7.684;2022-07-21T06:08:30;19.30;99.90
3566;DHT22;1797;51.844;7.684;2022-07-21T06:10:55;19.30;99.90
3566;DHT22;1797;51.844;7.684;2022-07-21T06:13:21;19.40;99.90
3566;DHT22;1797;51.844;7.684;2022-07-21T06:15:47;19.50;99.90
3566;DHT22;1797;51.844;7.684;2022-07-21T06:18:12;19.40;99.90
3566;DHT22;1797;51.844;7.684;2022-07-21T06:20:38;19.90;99.90
3566;DHT22;1797;51.844;7.684;2022-07-21T06:23:05;20.10;99.90
3566;DHT22;1797;51.844;7.684;2022-07-21T06:25:30;20.30;99.90
3566;DHT22;1797;51.844;7.684;2022-07-21T06:27:56;20.40;99.90
3566;DHT22;1797;51.844;7.684;2022-07-21T06:30:21;20.50;99.90
3566;DHT22;1797;51.844;7.684;2022-07-21T06:32:47;20.60;99.90
3566;DHT22;1797;51.844;7.684;2022-07-21T06:35:12;20.60;99.90
3566;DHT22;1797;51.844;7.684;2022-07-21T06:37:38;20.60;99.90
3566;DHT22;1797;51.844;7.684;2022-07-21T06:40:05;20.40;99.90
3566;DHT22;1797;51.844;7.684;2022-07-21T06:42:31;20.30;99.90
3566;DHT22;1797;51.844;7.684;2022-07-21T06:44:56;20.30;99.90
3566;DHT22;1797;51.844;7.684;2022-07-21T06:47:22;20.20;99.90
3566;DHT22;1797;51.844;7.684;2022-07-21T06:49:47;20.30;99.90
3566;DHT22;1797;51.844;7.684;2022-07-21T06:52:13;20.50;99.90
3566;DHT22;1797;51.844;7.684;2022-07-21T06:54:38;20.60;99.90
3566;DHT22;1797;51.844;7.684;2022-07-21T06:57:04;20.70;99.90
3566;DHT22;1797;51.844;7.684;2022-07-21T06:59:31;20.70;99.90
3566;DHT22;1797;51.844;7.684;2022-07-21T07:01:57;20.80;99.90
3566;DHT22;1797;51.844;7.684;2022-07-21T07:04:24;21.00;99.90
3566;DHT22;1797;51.844;7.684;2022-07-21T07:06:49;20.90;99.90
3566;DHT22;1797;51.844;7.684;2022-07-21T07:09:17;21.10;99.90
3566;DHT22;1797;51.844;7.684;2022-07-21T07:11:43;21.10;99.90
3566;DHT22;1797;51.844;7.684;2022-07-21T07:14:08;21.10;99.90
3566;DHT22;1797;51.844;7.684;2022-07-21T07:16:34;21.00;99.90
3566;DHT22;1797;51.844;7.684;2022-07-21T07:18:59;20.80;99.90
3566;DHT22;1797;51.844;7.684;2022-07-21T07:21:25;20.90;99.90
3566;DHT22;1797;51.844;7.684;2022-07-21T07:23:50;20.80;99.90
3566;DHT22;1797;51.844;7.684;2022-07-21T07:26:16;20.80;99.90
3566;DHT22;1797;51.844;7.684;2022-07-21T07:28:41;20.80;99.90
3566;DHT22;1797;51.844;7.684;2022-07-21T07:31:07;20.80;99.90
3566;DHT22;1797;51.844;7.684;2022-07-21T07:33:33;21.20;99.90
3566;DHT22;1797;51.844;7.684;2022-07-21T07:35:58;20.90;99.90
3566;DHT22;1797;51.844;7.684;2022-07-21T07:38:24;20.80;99.90
3566;DHT22;1797;51.844;7.684;2022-07-21T07:40:50;20.60;99.90
3566;DHT22;1797;51.844;7.684;2022-07-21T07:43:15;20.60;99.90
3566;DHT22;1797;51.844;7.684;2022-07-21T07:45:41;20.80;99.90
3566;DHT22;1797;51.844;7.684;2022-07-21T07:48:06;20.70;99.90
3566;DHT22;1797;51.844;7.684;2022-07-21T07:50:32;20.70;99.90
3566;DHT22;1797;51.844;7.684;2022-07-21T07:52:58;20.70;99.90
3566;DHT22;1797;51.844;7.684;2022-07-21T07:55:24;20.80;99.90
3566;DHT22;1797;51.844;7.684;2022-07-21T07:57:49;20.90;99.90
3566;DHT22;1797;51.844;7.684;2022-07-21T08:00:17;21.00;99.90
3566;DHT22;1797;51.844;7.684;2022-07-21T08:02:43;21.10;99.90
3566;DHT22;1797;51.844;7.684;2022-07-21T08:05:09;21.20;99.90
3566;DHT22;1797;51.844;7.684;2022-07-21T08:07:39;21.30;99.90
3566;DHT22;1797;51.844;7.684;2022-07-21T08:10:07;21.20;99.90
3566;DHT22;1797;51.844;7.684;2022-07-21T08:12:32;21.20;99.90
3566;DHT22;1797;51.844;7.684;2022-07-21T08:14:58;21.20;99.90
3566;DHT22;1797;51.844;7.684;2022-07-21T08:17:23;21.20;99.90
3566;DHT22;1797;51.844;7.684;2022-07-21T08:19:49;21.20;99.90
3566;DHT22;1797;51.844;7.684;2022-07-21T08:22:14;21.10;99.90
3566;DHT22;1797;51.844;7.684;2022-07-21T08:24:40;21.10;99.90
3566;DHT22;1797;51.844;7.684;2022-07-21T08:27:06;21.00;99.90
3566;DHT22;1797;51.844;7.684;2022-07-21T08:29:31;21.10;99.90
3566;DHT22;1797;51.844;7.684;2022-07-21T08:31:57;21.20;99.90
3566;DHT22;1797;51.844;7.684;2022-07-21T08:34:23;21.20;99.90
3566;DHT22;1797;51.844;7.684;2022-07-21T08:36:48;21.10;99.90
3566;DHT22;1797;51.844;7.684;2022-07-21T08:39:14;21.30;99.90
3566;DHT22;1797;51.844;7.684;2022-07-21T08:41:40;21.40;58.50
3566;DHT22;1797;51.844;7.684;2022-07-21T08:44:05;21.50;1.00
3566;DHT22;1797;51.844;7.684;2022-07-21T08:46:33;21.70;1.00
3566;DHT22;1797;51.844;7.684;2022-07-21T08:49:02;21.90;1.00
3566;DHT22;1797;51.844;7.684;2022-07-21T08:51:32;22.00;1.00
3566;DHT22;1797;51.844;7.684;2022-07-21T08:53:58;21.90;99.90
3566;DHT22;1797;51.844;7.684;2022-07-21T08:56:24;21.90;67.00
3566;DHT22;1797;51.844;7.684;2022-07-21T08:58:49;21.80;1.00
3566;DHT22;1797;51.844;7.684;2022-07-21T09:01:15;22.10;1.00
3566;DHT22;1797;51.844;7.684;2022-07-21T09:03:40;22.50;1.00
3566;DHT22;1797;51.844;7.684;2022-07-21T09:06:09;22.60;1.00
3566;DHT22;1797;51.844;7.684;2022-07-21T09:08:52;22.70;1.00
3566;DHT22;1797;51.844;7.684;2022-07-21T09:11:25;22.80;1.00
3566;DHT22;1797;51.844;7.684;2022-07-21T09:14:11;22.70;99.90
3566;DHT22;1797;51.844;7.684;2022-07-21T09:19:03;23.10;99.90
3566;DHT22;1797;51.844;7.684;2022-07-21T09:21:34;23.10;1.20
3566;DHT22;1797;51.844;7.684;2022-07-21T09:24:14;23.10;1.00
3566;DHT22;1797;51.844;7.684;2022-07-21T09:29:22;23.20;1.00
3566;DHT22;1797;51.844;7.684;2022-07-21T09:31:48;23.10;1.00
3566;DHT22;1797;51.844;7.684;2022-07-21T09:34:14;23.20;1.00
3566;DHT22;1797;51.844;7.684;2022-07-21T09:36:54;23.30;1.00
3566;DHT22;1797;51.844;7.684;2022-07-21T09:39:56;23.10;1.00
3566;DHT22;1797;51.844;7.684;2022-07-21T09:42:28;23.20;1.00
3566;DHT22;1797;51.844;7.684;2022-07-21T09:44:59;23.00;1.00
3566;DHT22;1797;51.844;7.684;2022-07-21T09:47:27;22.90;1.00
3566;DHT22;1797;51.844;7.684;2022-07-21T09:49:54;23.00;1.00
3566;DHT22;1797;51.844;7.684;2022-07-21T09:52:27;23.00;1.00
3566;DHT22;1797;51.844;7.684;2022-07-21T09:54:56;23.10;1.00
3566;DHT22;1797;51.844;7.684;2022-07-21T09:57:22;23.40;1.00
3566;DHT22;1797;51.844;7.684;2022-07-21T09:59:48;23.60;99.90
3566;DHT22;1797;51.844;7.684;2022-07-21T10:02:23;24.00;1.00
3566;DHT22;1797;51.844;7.684;2022-07-21T10:07:30;24.20;99.90
3566;DHT22;1797;51.844;7.684;2022-07-21T10:09:56;24.10;99.90
3566;DHT22;1797;51.844;7.684;2022-07-21T10:12:23;23.70;6.90
3566;DHT22;1797;51.844;7.684;2022-07-21T10:14:50;23.20;99.90
3566;DHT22;1797;51.844;7.684;2022-07-21T10:17:17;23.00;99.90
3566;DHT22;1797;51.844;7.684;2022-07-21T10:20:23;22.80;1.00
3566;DHT22;1797;51.844;7.684;2022-07-21T10:25:35;22.80;1.00
3566;DHT22;1797;51.844;7.684;2022-07-21T10:30:49;23.10;99.90
3566;DHT22;1797;51.844;7.684;2022-07-21T10:33:18;23.70;99.90
3566;DHT22;1797;51.844;7.684;2022-07-21T10:35:49;24.00;1.00
3566;DHT22;1797;51.844;7.684;2022-07-21T10:38:33;23.90;42.10
3566;DHT22;1797;51.844;7.684;2022-07-21T10:41:01;23.90;91.20
3566;DHT22;1797;51.844;7.684;2022-07-21T10:45:54;23.70;99.90
3566;DHT22;1797;51.844;7.684;2022-07-21T10:51:08;23.50;99.90
3566;DHT22;1797;51.844;7.684;2022-07-21T10:53:35;23.80;99.90
3566;DHT22;1797;51.844;7.684;2022-07-21T10:56:01;24.10;99.90
3566;DHT22;1797;51.844;7.684;2022-07-21T10:58:36;24.20;1.00
3566;DHT22;1797;51.844;7.684;2022-07-21T11:03:41;24.00;1.00
3566;DHT22;1797;51.844;7.684;2022-07-21T11:06:31;23.70;38.40
3566;DHT22;1797;51.844;7.684;2022-07-21T11:11:55;23.90;1.00
3566;DHT22;1797;51.844;7.684;2022-07-21T11:14:35;24.50;1.00
3566;DHT22;1797;51.844;7.684;2022-07-21T11:17:01;25.20;99.90
3566;DHT22;1797;51.844;7.684;2022-07-21T11:24:30;26.00;1.00
3566;DHT22;1797;51.844;7.684;2022-07-21T11:27:03;26.50;5.10
3566;DHT22;1797;51.844;7.684;2022-07-21T11:29:30;26.90;99.90
3566;DHT22;1797;51.844;7.684;2022-07-21T11:34:23;26.00;1.00
3566;DHT22;1797;51.844;7.684;2022-07-21T11:36:58;25.60;1.00
3566;DHT22;1797;51.844;7.684;2022-07-21T11:39:24;25.70;1.00
3566;DHT22;1797;51.844;7.684;2022-07-21T11:44:23;26.40;1.00
3566;DHT22;1797;51.844;7.684;2022-07-21T11:46:54;26.40;64.70
3566;DHT22;1797;51.844;7.684;2022-07-21T11:49:21;26.10;99.90
3566;DHT22;1797;51.844;7.684;2022-07-21T11:51:54;26.40;99.90
3566;DHT22;1797;51.844;7.684;2022-07-21T11:54:35;26.50;1.00
3566;DHT22;1797;51.844;7.684;2022-07-21T12:17:05;22.80;99.90
3566;DHT22;1797;51.844;7.684;2022-07-21T12:19:31;22.00;1.00
3566;DHT22;1797;51.844;7.684;2022-07-21T12:21:57;21.50;1.00
3566;DHT22;1797;51.844;7.684;2022-07-21T12:24:52;21.20;99.90
3566;DHT22;1797;51.844;7.684;2022-07-21T12:27:19;21.10;1.00
3566;DHT22;1797;51.844;7.684;2022-07-21T12:29:45;21.10;1.60
3566;DHT22;1797;51.844;7.684;2022-07-21T12:32:11;21.30;93.20
3566;DHT22;1797;51.844;7.684;2022-07-21T12:34:52;21.50;1.00
3566;DHT22;1797;51.844;7.684;2022-07-21T12:37:19;21.60;1.00
3566;DHT22;1797;51.844;7.684;2022-07-21T12:40:01;21.70;99.90
3566;DHT22;1797;51.844;7.684;2022-07-21T12:42:32;21.80;99.90
3566;DHT22;1797;51.844;7.684;2022-07-21T12:45:00;21.80;1.00
3566;DHT22;1797;51.844;7.684;2022-07-21T12:47:26;21.80;1.00
3566;DHT22;1797;51.844;7.684;2022-07-21T12:52:25;21.50;1.00
3566;DHT22;1797;51.844;7.684;2022-07-21T12:54:51;21.20;99.90
3566;DHT22;1797;51.844;7.684;2022-07-21T12:57:17;21.00;1.00
3566;DHT22;1797;51.844;7.684;2022-07-21T12:59:43;20.90;1.00
3566;DHT22;1797;51.844;7.684;2022-07-21T13:02:08;20.90;1.00
3566;DHT22;1797;51.844;7.684;2022-07-21T13:04:34;21.10;1.00
3566;DHT22;1797;51.844;7.684;2022-07-21T13:06:59;21.40;1.00
3566;DHT22;1797;51.844;7.684;2022-07-21T13:09:25;21.60;1.00
3566;DHT22;1797;51.844;7.684;2022-07-21T13:11:51;21.70;1.00
3566;DHT22;1797;51.844;7.684;2022-07-21T13:14:16;21.70;99.90
3566;DHT22;1797;51.844;7.684;2022-07-21T13:16:42;21.80;1.00
3566;DHT22;1797;51.844;7.684;2022-07-21T13:19:07;22.00;99.90
3566;DHT22;1797;51.844;7.684;2022-07-21T13:21:33;22.30;1.00
3566;DHT22;1797;51.844;7.684;2022-07-21T13:23:59;22.60;1.00
3566;DHT22;1797;51.844;7.684;2022-07-21T13:26:24;22.80;99.90
3566;DHT22;1797;51.844;7.684;2022-07-21T13:28:50;23.10;1.00
3566;DHT22;1797;51.844;7.684;2022-07-21T13:31:15;23.30;1.00
3566;DHT22;1797;51.844;7.684;2022-07-21T13:33:41;23.30;99.90
3566;DHT22;1797;51.844;7.684;2022-07-21T13:36:08;23.00;16.40
3566;DHT22;1797;51.844;7.684;2022-07-21T13:38:34;22.80;1.00
3566;DHT22;1797;51.844;7.684;2022-07-21T13:41:00;22.50;1.00
3566;DHT22;1797;51.844;7.684;2022-07-21T13:43:26;22.30;99.90
3566;DHT22;1797;51.844;7.684;2022-07-21T13:45:51;22.30;1.00
3566;DHT22;1797;51.844;7.684;2022-07-21T13:48:17;22.20;1.00
3566;DHT22;1797;51.844;7.684;2022-07-21T13:50:42;22.10;1.00
3566;DHT22;1797;51.844;7.684;2022-07-21T13:53:08;21.90;1.00
3566;DHT22;1797;51.844;7.684;2022-07-21T13:55:34;21.90;1.00
3566;DHT22;1797;51.844;7.684;2022-07-21T13:58:00;21.70;99.90
3566;DHT22;1797;51.844;7.684;2022-07-21T14:00:25;21.70;99.90
3566;DHT22;1797;51.844;7.684;2022-07-21T14:02:51;21.80;35.40
3566;DHT22;1797;51.844;7.684;2022-07-21T14:05:17;21.70;99.90
3566;DHT22;1797;51.844;7.684;2022-07-21T14:07:43;21.70;99.90
3566;DHT22;1797;51.844;7.684;2022-07-21T14:10:10;21.60;1.00
3566;DHT22;1797;51.844;7.684;2022-07-21T14:12:36;21.50;1.00
3566;DHT22;1797;51.844;7.684;2022-07-21T14:15:01;21.40;1.00
3566;DHT22;1797;51.844;7.684;2022-07-21T14:17:27;21.20;1.00
3566;DHT22;1797;51.844;7.684;2022-07-21T14:22:19;20.70;99.90
3566;DHT22;1797;51.844;7.684;2022-07-21T14:24:47;20.50;99.90
3566;DHT22;1797;51.844;7.684;2022-07-21T14:27:31;20.40;99.90
3566;DHT22;1797;51.844;7.684;2022-07-21T14:32:24;20.30;99.90
3566;DHT22;1797;51.844;7.684;2022-07-21T14:34:53;20.40;99.90
3566;DHT22;1797;51.844;7.684;2022-07-21T14:37:19;20.70;99.90
3566;DHT22;1797;51.844;7.684;2022-07-21T14:39:46;20.50;99.90
3566;DHT22;1797;51.844;7.684;2022-07-21T14:42:13;20.70;99.90
3566;DHT22;1797;51.844;7.684;2022-07-21T14:44:39;20.90;99.90
3566;DHT22;1797;51.844;7.684;2022-07-21T14:47:05;20.80;99.90
3566;DHT22;1797;51.844;7.684;2022-07-21T14:49:31;21.10;99.90
3566;DHT22;1797;51.844;7.684;2022-07-21T14:51:56;21.10;99.90
3566;DHT22;1797;51.844;7.684;2022-07-21T14:54:22;21.30;99.90
3566;DHT22;1797;51.844;7.684;2022-07-21T14:56:47;21.30;1.00
3566;DHT22;1797;51.844;7.684;2022-07-21T14:59:13;21.30;1.00
3566;DHT22;1797;51.844;7.684;2022-07-21T15:01:38;21.20;1.00
3566;DHT22;1797;51.844;7.684;2022-07-21T15:04:04;21.00;1.00
3566;DHT22;1797;51.844;7.684;2022-07-21T15:06:30;20.90;15.10
3566;DHT22;1797;51.844;7.684;2022-07-21T15:08:55;20.90;1.00
3566;DHT22;1797;51.844;7.684;2022-07-21T15:11:23;20.80;23.70
3566;DHT22;1797;51.844;7.684;2022-07-21T15:13:49;21.00;99.90
3566;DHT22;1797;51.844;7.684;2022-07-21T15:16:15;21.00;99.90
3566;DHT22;1797;51.844;7.684;2022-07-21T15:18:40;21.10;99.90
3566;DHT22;1797;51.844;7.684;2022-07-21T15:21:06;21.20;99.90
3566;DHT22;1797;51.844;7.684;2022-07-21T15:23:32;21.10;1.00
3566;DHT22;1797;51.844;7.684;2022-07-21T15:25:58;21.10;1.00
3566;DHT22;1797;51.844;7.684;2022-07-21T15:28:23;20.90;1.00
3566;DHT22;1797;51.844;7.684;2022-07-21T15:30:49;20.80;1.00
3566;DHT22;1797;51.844;7.684;2022-07-21T15:33:14;20.80;99.90
3566;DHT22;1797;51.844;7.684;2022-07-21T15:35:40;20.60;1.00
3566;DHT22;1797;51.844;7.684;2022-07-21T15:38:06;20.60;1.00
3566;DHT22;1797;51.844;7.684;2022-07-21T15:40:31;20.50;1.00
3566;DHT22;1797;51.844;7.684;2022-07-21T15:42:57;20.50;1.00
3566;DHT22;1797;51.844;7.684;2022-07-21T15:45:23;20.40;1.00
3566;DHT22;1797;51.844;7.684;2022-07-21T15:47:48;20.50;51.80
3566;DHT22;1797;51.844;7.684;2022-07-21T15:50:14;20.40;1.00
3566;DHT22;1797;51.844;7.684;2022-07-21T15:52:41;20.30;1.00
3566;DHT22;1797;51.844;7.684;2022-07-21T15:55:08;20.30;1.00
3566;DHT22;1797;51.844;7.684;2022-07-21T15:57:34;20.20;99.90
3566;DHT22;1797;51.844;7.684;2022-07-21T16:00:07;20.20;99.90
3566;DHT22;1797;51.844;7.684;2022-07-21T16:02:33;20.20;99.90
3566;DHT22;1797;51.844;7.684;2022-07-21T16:04:59;20.00;99.90
3566;DHT22;1797;51.844;7.684;2022-07-21T16:07:24;19.90;99.90
3566;DHT22;1797;51.844;7.684;2022-07-21T16:09:50;19.80;99.90
3566;DHT22;1797;51.844;7.684;2022-07-21T16:12:16;19.70;99.90
3566;DHT22;1797;51.844;7.684;2022-07-21T16:14:41;19.70;99.90
3566;DHT22;1797;51.844;7.684;2022-07-21T16:17:08;19.60;99.90
3566;DHT22;1797;51.844;7.684;2022-07-21T16:19:34;19.50;99.90
3566;DHT22;1797;51.844;7.684;2022-07-21T16:21:59;19.40;99.90
3566;DHT22;1797;51.844;7.684;2022-07-21T16:24:25;19.40;99.90
3566;DHT22;1797;51.844;7.684;2022-07-21T16:26:51;19.40;99.90
3566;DHT22;1797;51.844;7.684;2022-07-21T16:29:17;19.30;99.90
3566;DHT22;1797;51.844;7.684;2022-07-21T16:31:43;19.30;99.90
3566;DHT22;1797;51.844;7.684;2022-07-21T16:34:08;19.30;99.90
3566;DHT22;1797;51.844;7.684;2022-07-21T16:36:34;19.20;99.90
3566;DHT22;1797;51.844;7.684;2022-07-21T16:39:00;19.20;99.90
3566;DHT22;1797;51.844;7.684;2022-07-21T16:41:26;19.20;99.90
3566;DHT22;1797;51.844;7.684;2022-07-21T16:43:51;19.10;99.90
3566;DHT22;1797;51.844;7.684;2022-07-21T16:46:17;19.20;99.90
3566;DHT22;1797;51.844;7.684;2022-07-21T16:48:42;19.00;99.90
3566;DHT22;1797;51.844;7.684;2022-07-21T16:51:17;19.00;99.90
3566;DHT22;1797;51.844;7.684;2022-07-21T16:53:44;19.00;99.90
3566;DHT22;1797;51.844;7.684;2022-07-21T16:56:10;19.00;99.90
3566;DHT22;1797;51.844;7.684;2022-07-21T16:58:36;19.10;99.90
3566;DHT22;1797;51.844;7.684;2022-07-21T17:01:02;19.10;99.90
3566;DHT22;1797;51.844;7.684;2022-07-21T17:03:27;19.10;99.90
3566;DHT22;1797;51.844;7.684;2022-07-21T17:05:53;19.10;99.90
3566;DHT22;1797;51.844;7.684;2022-07-21T17:08:18;19.00;99.90
3566;DHT22;1797;51.844;7.684;2022-07-21T17:10:44;19.10;99.90
3566;DHT22;1797;51.844;7.684;2022-07-21T17:13:09;19.00;99.90
3566;DHT22;1797;51.844;7.684;2022-07-21T17:15:35;19.00;99.90
3566;DHT22;1797;51.844;7.684;2022-07-21T17:18:01;18.90;99.90
3566;DHT22;1797;51.844;7.684;2022-07-21T17:20:27;19.00;99.90
3566;DHT22;1797;51.844;7.684;2022-07-21T17:22:53;18.80;99.90
3566;DHT22;1797;51.844;7.684;2022-07-21T17:25:18;18.90;99.90
3566;DHT22;1797;51.844;7.684;2022-07-21T17:27:44;19.20;99.90
3566;DHT22;1797;51.844;7.684;2022-07-21T17:30:10;18.90;99.90
3566;DHT22;1797;51.844;7.684;2022-07-21T17:32:35;18.80;99.90
3566;DHT22;1797;51.844;7.684;2022-07-21T17:35:01;18.80;99.90
3566;DHT22;1797;51.844;7.684;2022-07-21T17:37:26;19.00;99.90
3566;DHT22;1797;51.844;7.684;2022-07-21T17:39:52;19.00;99.90
3566;DHT22;1797;51.844;7.684;2022-07-21T17:42:18;18.40;99.90